Het weer levert geen direct gevaar op.    Er zijn geen waarschuwingen afgegeven.








webcam  webcam


webcam 2   webcam 2


Onweer radar Meer informatie blitzortung!


Regen radar Meer informatie rain snow radar


Bezoek onze andere website:

Template documentation
and downloads

And another site

weerstation wsnoordbergum

weerstationlembeke



METAR rapporten vliegvelden

   
EHAM - Amsterdam
Gewijzigd: 24-04-2019 07:55
Helder  
Helder  
   Wind: ZO 16.7 km/h
Wind: ZO 16.7 km/h
Temperatuur: 14°C
Dauwpunt: 10°C
Vochtigheid: 77%
Barometer: 996 hPa
Zicht: meer dan 10 km
Bewolking: Helder
EHAM 240555Z 14009KT CAVOK 14/10 Q0996 NOSIG
EHRD - Rotterdam
Gewijzigd: 24-04-2019 07:55
Helder  
Helder  
   Wind: ZZO 14.8 km/h
Wind: ZZO 14.8 km/h
Temperatuur: 15°C
Dauwpunt: 10°C
Vochtigheid: 72%
Barometer: 996 hPa
Bewolking: Helder
Zicht: meer dan 10 km
Bewolking: Helder
EHRD 240555Z AUTO 16008KT 130V200 9999 NCD 15/10 Q0996 NOSIG
EHLW - Leeuwarden
Gewijzigd: 24-04-2019 07:55
Bewolking  
Bewolking  
   Wind: ZO 18.5 km/h
Wind: ZO 18.5 km/h
Temperatuur: 14°C
Dauwpunt: 9°C
Vochtigheid: 72%
Barometer: 997 hPa
Bewolking: Bewolking
Zicht: meer dan 10 km
Bewolking: Licht bewolkt 9300 ft,
Bewolking 10000 ft
EHLW 240555Z AUTO 14010KT 100V170 9999 FEW093 OVC100 14/09 Q0997 BLU 13010KT CAVOK
EHGG - Groningen
Gewijzigd: 24-04-2019 07:55
Gedeeltelijk bewolkt  
Gedeeltelijk bewolkt  
   Wind: OZO 11.1 km/h
Wind: OZO 11.1 km/h
Temperatuur: 13°C
Dauwpunt: 9°C
Vochtigheid: 77%
Barometer: 998 hPa
Bewolking: Gedeeltelijk bewolkt
Zicht: meer dan 10 km
Bewolking: Gedeeltelijk bewolkt
EHGG 240555Z AUTO 11006KT 080V150 9999 NSC 13/09 Q0998 NOSIG
  

Script ontwikkeld door  Saratoga-weather.org Aangepast voor de template door  Weerstation Leuven

U vindt ons ook hier:

Het Weer Aktueel

European Weather Network

WeatherCloud

Weather Underground

AWEKAS

HAMweather, WeatherForYou, PWS Weather

Apparatuur in gebruik:

Weerstation
Davis VP2

Weerprogramma
Meteobridge

Weercomputer
Asus WL -330N3G

Webleverancier
Hostnet

Davis VP2

Meteobridge

Asus WL -330N3G

Hostnet